sensor_id;sensor_type;location;lat;lon;timestamp;pressure;altitude;pressure_sealevel;temperature;humidity
77043;BME280;65975;53.936;27.540;2023-02-15T00:00:17;100548.22;;;-0.78;66.67
77043;BME280;65975;53.936;27.540;2023-02-15T00:02:43;100544.41;;;-0.88;66.40
77043;BME280;65975;53.936;27.540;2023-02-15T00:05:08;100550.69;;;-0.58;66.41
77043;BME280;65975;53.936;27.540;2023-02-15T00:07:34;100523.09;;;-0.62;66.02
77043;BME280;65975;53.936;27.540;2023-02-15T00:10:00;100546.16;;;-0.41;65.34
77043;BME280;65975;53.936;27.540;2023-02-15T00:12:25;100458.03;;;-1.07;65.43
77043;BME280;65975;53.936;27.540;2023-02-15T00:14:51;100513.19;;;-0.51;65.00
77043;BME280;65975;53.936;27.540;2023-02-15T00:17:16;100551.78;;;-0.04;64.33
77043;BME280;65975;53.936;27.540;2023-02-15T00:19:41;100541.53;;;-0.02;63.84
77043;BME280;65975;53.936;27.540;2023-02-15T00:22:07;100538.56;;;0.11;64.21
77043;BME280;65975;53.936;27.540;2023-02-15T00:24:33;100551.06;;;0.26;63.45
77043;BME280;65975;53.936;27.540;2023-02-15T00:26:58;100549.06;;;0.17;64.43
77043;BME280;65975;53.936;27.540;2023-02-15T00:29:24;100559.09;;;0.35;63.79
77043;BME280;65975;53.936;27.540;2023-02-15T00:31:50;100546.34;;;0.13;63.65
77043;BME280;65975;53.936;27.540;2023-02-15T00:34:19;100570.78;;;0.00;63.60
77043;BME280;65975;53.936;27.540;2023-02-15T00:36:45;100569.84;;;-0.50;64.12
77043;BME280;65975;53.936;27.540;2023-02-15T00:39:11;100600.72;;;-0.50;63.94
77043;BME280;65975;53.936;27.540;2023-02-15T00:41:37;100568.66;;;-0.35;64.29
77043;BME280;65975;53.936;27.540;2023-02-15T00:44:03;100570.88;;;0.03;62.88
77043;BME280;65975;53.936;27.540;2023-02-15T00:46:29;100575.22;;;0.04;63.42
77043;BME280;65975;53.936;27.540;2023-02-15T00:48:54;100559.06;;;-0.16;64.33
77043;BME280;65975;53.936;27.540;2023-02-15T00:51:21;100571.16;;;0.11;64.75
77043;BME280;65975;53.936;27.540;2023-02-15T00:53:47;100575.56;;;0.15;64.16
77043;BME280;65975;53.936;27.540;2023-02-15T00:56:12;100577.00;;;0.07;63.37
77043;BME280;65975;53.936;27.540;2023-02-15T00:58:38;100580.34;;;0.04;63.65
77043;BME280;65975;53.936;27.540;2023-02-15T01:01:06;100579.00;;;-0.10;63.96
77043;BME280;65975;53.936;27.540;2023-02-15T01:03:32;100577.25;;;0.14;63.44
77043;BME280;65975;53.936;27.540;2023-02-15T01:05:58;100398.56;;;-1.16;64.30
77043;BME280;65975;53.936;27.540;2023-02-15T01:08:23;100585.56;;;-0.18;65.27
77043;BME280;65975;53.936;27.540;2023-02-15T01:10:49;100580.03;;;-0.05;63.91
77043;BME280;65975;53.936;27.540;2023-02-15T01:13:16;100528.53;;;-0.05;63.77
77043;BME280;65975;53.936;27.540;2023-02-15T01:15:42;100578.66;;;0.30;64.52
77043;BME280;65975;53.936;27.540;2023-02-15T01:18:08;100550.28;;;0.28;64.12
77043;BME280;65975;53.936;27.540;2023-02-15T01:20:35;100564.88;;;0.55;63.58
77043;BME280;65975;53.936;27.540;2023-02-15T01:23:05;100574.88;;;0.71;64.12
77043;BME280;65975;53.936;27.540;2023-02-15T01:25:33;100579.19;;;0.72;62.44
77043;BME280;65975;53.936;27.540;2023-02-15T01:27:59;100543.19;;;0.48;63.20
77043;BME280;65975;53.936;27.540;2023-02-15T01:30:24;100578.84;;;0.61;62.21
77043;BME280;65975;53.936;27.540;2023-02-15T01:32:50;100581.13;;;0.27;63.75
77043;BME280;65975;53.936;27.540;2023-02-15T01:35:15;100571.50;;;0.73;63.01
77043;BME280;65975;53.936;27.540;2023-02-15T01:37:42;100560.41;;;0.49;63.39
77043;BME280;65975;53.936;27.540;2023-02-15T01:40:12;100581.69;;;0.69;63.18
77043;BME280;65975;53.936;27.540;2023-02-15T01:42:38;100566.63;;;0.56;62.82
77043;BME280;65975;53.936;27.540;2023-02-15T01:45:15;100598.59;;;0.88;62.26
77043;BME280;65975;53.936;27.540;2023-02-15T01:47:47;100590.38;;;0.72;62.47
77043;BME280;65975;53.936;27.540;2023-02-15T01:52:44;100587.34;;;0.33;63.44
77043;BME280;65975;53.936;27.540;2023-02-15T01:55:13;100545.56;;;0.42;63.22
77043;BME280;65975;53.936;27.540;2023-02-15T01:57:40;100566.06;;;0.64;63.27
77043;BME280;65975;53.936;27.540;2023-02-15T02:00:08;100583.03;;;0.07;63.70
77043;BME280;65975;53.936;27.540;2023-02-15T02:02:34;100592.50;;;0.59;63.32
77043;BME280;65975;53.936;27.540;2023-02-15T02:05:01;100595.00;;;0.83;63.64
77043;BME280;65975;53.936;27.540;2023-02-15T02:07:43;100597.75;;;0.62;63.78
77043;BME280;65975;53.936;27.540;2023-02-15T02:10:12;100591.69;;;0.34;63.42
77043;BME280;65975;53.936;27.540;2023-02-15T02:12:40;100592.22;;;0.24;63.64
77043;BME280;65975;53.936;27.540;2023-02-15T02:15:07;100598.50;;;0.32;63.97
77043;BME280;65975;53.936;27.540;2023-02-15T02:41:47;100604.16;;;0.22;64.20
77043;BME280;65975;53.936;27.540;2023-02-15T02:49:09;100576.59;;;0.45;63.99
77043;BME280;65975;53.936;27.540;2023-02-15T02:51:35;100603.88;;;0.38;63.09
77043;BME280;65975;53.936;27.540;2023-02-15T02:54:04;100536.00;;;0.38;63.43
77043;BME280;65975;53.936;27.540;2023-02-15T02:59:07;100569.59;;;0.68;62.97
77043;BME280;65975;53.936;27.540;2023-02-15T03:01:48;100563.56;;;0.67;63.37
77043;BME280;65975;53.936;27.540;2023-02-15T03:04:26;100608.78;;;0.83;62.71
77043;BME280;65975;53.936;27.540;2023-02-15T03:09:31;100583.44;;;0.70;63.45
77043;BME280;65975;53.936;27.540;2023-02-15T03:12:34;100596.91;;;0.36;63.89
77043;BME280;65975;53.936;27.540;2023-02-15T03:15:04;100591.69;;;0.34;64.08
77043;BME280;65975;53.936;27.540;2023-02-15T03:17:32;100593.50;;;0.37;64.02
77043;BME280;65975;53.936;27.540;2023-02-15T03:20:02;100585.56;;;0.56;63.90
77043;BME280;65975;53.936;27.540;2023-02-15T03:22:33;100586.66;;;0.37;64.40
77043;BME280;65975;53.936;27.540;2023-02-15T03:25:18;100468.63;;;-0.26;64.32
77043;BME280;65975;53.936;27.540;2023-02-15T03:27:49;100608.31;;;0.69;64.21
77043;BME280;65975;53.936;27.540;2023-02-15T03:30:18;100607.66;;;0.75;63.70
77043;BME280;65975;53.936;27.540;2023-02-15T03:32:47;100596.97;;;0.37;64.20
77043;BME280;65975;53.936;27.540;2023-02-15T03:35:13;100575.56;;;0.40;63.63
77043;BME280;65975;53.936;27.540;2023-02-15T03:37:43;100619.19;;;0.61;64.17
77043;BME280;65975;53.936;27.540;2023-02-15T03:46:29;100623.63;;;0.90;63.38
77043;BME280;65975;53.936;27.540;2023-02-15T03:49:02;100553.31;;;0.69;62.77
77043;BME280;65975;53.936;27.540;2023-02-15T03:51:33;100593.06;;;1.02;62.50
77043;BME280;65975;53.936;27.540;2023-02-15T03:56:30;100574.50;;;0.87;63.40
77043;BME280;65975;53.936;27.540;2023-02-15T03:58:56;100600.81;;;1.04;63.30
77043;BME280;65975;53.936;27.540;2023-02-15T04:04:36;100599.34;;;0.85;63.46
77043;BME280;65975;53.936;27.540;2023-02-15T04:07:04;100589.22;;;0.90;63.01
77043;BME280;65975;53.936;27.540;2023-02-15T04:09:29;100600.72;;;1.01;62.86
77043;BME280;65975;53.936;27.540;2023-02-15T04:12:13;100574.31;;;1.08;62.69
77043;BME280;65975;53.936;27.540;2023-02-15T04:14:39;100583.50;;;1.00;62.91
77043;BME280;65975;53.936;27.540;2023-02-15T04:17:23;100606.41;;;1.17;63.82
77043;BME280;65975;53.936;27.540;2023-02-15T04:19:49;100584.03;;;1.16;63.08
77043;BME280;65975;53.936;27.540;2023-02-15T04:22:33;100588.94;;;1.37;61.99
77043;BME280;65975;53.936;27.540;2023-02-15T04:25:17;100592.31;;;1.06;62.08
77043;BME280;65975;53.936;27.540;2023-02-15T04:27:48;100580.72;;;0.94;62.66
77043;BME280;65975;53.936;27.540;2023-02-15T04:30:15;100591.25;;;1.00;62.75
77043;BME280;65975;53.936;27.540;2023-02-15T04:32:41;100591.69;;;0.87;62.59
77043;BME280;65975;53.936;27.540;2023-02-15T04:35:07;100560.66;;;0.57;62.88
77043;BME280;65975;53.936;27.540;2023-02-15T04:37:34;100602.38;;;0.45;64.07
77043;BME280;65975;53.936;27.540;2023-02-15T04:40:00;100597.88;;;0.39;64.44
77043;BME280;65975;53.936;27.540;2023-02-15T04:42:26;100573.56;;;0.31;63.01
77043;BME280;65975;53.936;27.540;2023-02-15T04:44:52;100597.50;;;0.54;62.97
77043;BME280;65975;53.936;27.540;2023-02-15T04:47:18;100597.53;;;0.81;63.55
77043;BME280;65975;53.936;27.540;2023-02-15T04:49:44;100602.06;;;0.88;63.41
77043;BME280;65975;53.936;27.540;2023-02-15T04:52:09;100593.75;;;0.97;62.46
77043;BME280;65975;53.936;27.540;2023-02-15T04:54:35;100591.59;;;0.84;63.20
77043;BME280;65975;53.936;27.540;2023-02-15T04:57:01;100591.34;;;0.76;63.36
77043;BME280;65975;53.936;27.540;2023-02-15T04:59:26;100587.78;;;0.99;62.45
77043;BME280;65975;53.936;27.540;2023-02-15T05:01:52;100547.38;;;0.71;62.14
77043;BME280;65975;53.936;27.540;2023-02-15T05:04:17;100598.00;;;1.25;61.58
77043;BME280;65975;53.936;27.540;2023-02-15T05:06:43;100574.63;;;0.90;62.53
77043;BME280;65975;53.936;27.540;2023-02-15T05:09:08;100599.28;;;1.10;61.60
77043;BME280;65975;53.936;27.540;2023-02-15T05:11:34;100578.53;;;0.79;63.09
77043;BME280;65975;53.936;27.540;2023-02-15T05:13:59;100575.78;;;0.73;62.84
77043;BME280;65975;53.936;27.540;2023-02-15T05:16:25;100538.03;;;0.75;63.26
77043;BME280;65975;53.936;27.540;2023-02-15T05:18:52;100593.44;;;0.88;63.33
77043;BME280;65975;53.936;27.540;2023-02-15T05:21:18;100593.13;;;0.78;63.97
77043;BME280;65975;53.936;27.540;2023-02-15T05:23:43;100596.94;;;0.90;63.08
77043;BME280;65975;53.936;27.540;2023-02-15T05:26:11;100563.66;;;0.44;63.70
77043;BME280;65975;53.936;27.540;2023-02-15T05:28:56;100582.81;;;0.78;63.63
77043;BME280;65975;53.936;27.540;2023-02-15T05:31:21;100594.00;;;0.77;63.91
77043;BME280;65975;53.936;27.540;2023-02-15T05:33:47;100590.16;;;0.66;64.08
77043;BME280;65975;53.936;27.540;2023-02-15T05:36:13;100593.81;;;0.73;63.79
77043;BME280;65975;53.936;27.540;2023-02-15T05:38:39;100580.94;;;0.73;63.74
77043;BME280;65975;53.936;27.540;2023-02-15T05:41:09;100585.03;;;0.41;65.35
77043;BME280;65975;53.936;27.540;2023-02-15T05:43:35;100598.44;;;0.56;64.08
77043;BME280;65975;53.936;27.540;2023-02-15T05:46:03;100590.28;;;0.69;64.39
77043;BME280;65975;53.936;27.540;2023-02-15T05:48:32;100568.03;;;0.46;64.88
77043;BME280;65975;53.936;27.540;2023-02-15T05:51:04;100583.69;;;0.27;65.18
77043;BME280;65975;53.936;27.540;2023-02-15T05:53:31;100580.25;;;0.52;64.37
77043;BME280;65975;53.936;27.540;2023-02-15T05:55:57;100580.78;;;0.68;63.38
77043;BME280;65975;53.936;27.540;2023-02-15T05:58:30;100591.25;;;0.73;64.89
77043;BME280;65975;53.936;27.540;2023-02-15T06:00:56;100590.66;;;0.82;63.68
77043;BME280;65975;53.936;27.540;2023-02-15T06:03:22;100592.72;;;0.39;65.00
77043;BME280;65975;53.936;27.540;2023-02-15T06:05:48;100597.19;;;0.70;63.95
77043;BME280;65975;53.936;27.540;2023-02-15T06:08:13;100589.59;;;0.75;63.07
77043;BME280;65975;53.936;27.540;2023-02-15T06:10:39;100591.25;;;0.73;63.42
77043;BME280;65975;53.936;27.540;2023-02-15T06:13:05;100592.41;;;1.09;62.89
77043;BME280;65975;53.936;27.540;2023-02-15T06:15:31;100548.59;;;0.56;63.15
77043;BME280;65975;53.936;27.540;2023-02-15T06:17:56;100608.97;;;0.89;63.31
77043;BME280;65975;53.936;27.540;2023-02-15T06:20:22;100598.28;;;0.78;62.89
77043;BME280;65975;53.936;27.540;2023-02-15T06:22:47;100592.06;;;0.72;62.91
77043;BME280;65975;53.936;27.540;2023-02-15T06:25:13;100600.47;;;0.93;62.86
77043;BME280;65975;53.936;27.540;2023-02-15T06:27:41;100583.69;;;0.77;62.96
77043;BME280;65975;53.936;27.540;2023-02-15T06:30:07;100601.00;;;1.38;62.25
77043;BME280;65975;53.936;27.540;2023-02-15T06:32:33;100578.34;;;1.28;61.07
77043;BME280;65975;53.936;27.540;2023-02-15T06:35:00;100608.50;;;1.59;61.55
77043;BME280;65975;53.936;27.540;2023-02-15T06:37:25;100602.00;;;1.43;61.48
77043;BME280;65975;53.936;27.540;2023-02-15T06:39:51;100607.75;;;1.63;61.10
77043;BME280;65975;53.936;27.540;2023-02-15T06:42:16;100595.19;;;1.45;60.95
77043;BME280;65975;53.936;27.540;2023-02-15T06:44:43;100582.41;;;1.48;60.91
77043;BME280;65975;53.936;27.540;2023-02-15T06:47:09;100580.66;;;1.19;61.93
77043;BME280;65975;53.936;27.540;2023-02-15T06:49:35;100582.59;;;1.56;60.62
77043;BME280;65975;53.936;27.540;2023-02-15T06:52:01;100547.09;;;1.47;61.14
77043;BME280;65975;53.936;27.540;2023-02-15T06:54:26;100600.47;;;1.78;61.21
77043;BME280;65975;53.936;27.540;2023-02-15T06:56:52;100599.25;;;1.37;61.08
77043;BME280;65975;53.936;27.540;2023-02-15T06:59:17;100575.31;;;1.41;60.88
77043;BME280;65975;53.936;27.540;2023-02-15T07:01:43;100591.91;;;1.21;61.25
77043;BME280;65975;53.936;27.540;2023-02-15T07:04:09;100605.50;;;1.75;60.23
77043;BME280;65975;53.936;27.540;2023-02-15T07:06:34;100590.13;;;1.78;60.55
77043;BME280;65975;53.936;27.540;2023-02-15T07:09:02;100540.31;;;1.82;59.44
77043;BME280;65975;53.936;27.540;2023-02-15T07:11:27;100600.94;;;2.28;58.87
77043;BME280;65975;53.936;27.540;2023-02-15T07:14:12;100597.03;;;2.11;58.69
77043;BME280;65975;53.936;27.540;2023-02-15T07:16:38;100600.97;;;1.96;59.04
77043;BME280;65975;53.936;27.540;2023-02-15T07:19:03;100609.28;;;1.86;59.08
77043;BME280;65975;53.936;27.540;2023-02-15T07:21:29;100598.88;;;1.83;59.86
77043;BME280;65975;53.936;27.540;2023-02-15T07:23:58;100598.16;;;1.87;60.33
77043;BME280;65975;53.936;27.540;2023-02-15T07:26:24;100562.47;;;1.14;61.48
77043;BME280;65975;53.936;27.540;2023-02-15T07:28:50;100579.78;;;1.18;62.48
77043;BME280;65975;53.936;27.540;2023-02-15T07:31:15;100571.22;;;1.49;61.70
77043;BME280;65975;53.936;27.540;2023-02-15T07:33:41;100550.25;;;1.67;nan
77043;BME280;65975;53.936;27.540;2023-02-15T07:36:06;100612.97;;;2.26;59.86
77043;BME280;65975;53.936;27.540;2023-02-15T07:38:37;100615.09;;;2.42;59.29
77043;BME280;65975;53.936;27.540;2023-02-15T07:41:05;100622.09;;;1.83;59.90
77043;BME280;65975;53.936;27.540;2023-02-15T07:43:36;100603.53;;;1.96;59.24
77043;BME280;65975;53.936;27.540;2023-02-15T07:46:04;100628.75;;;1.74;60.04
77043;BME280;65975;53.936;27.540;2023-02-15T07:48:30;100598.84;;;1.52;59.84
77043;BME280;65975;53.936;27.540;2023-02-15T07:50:59;100605.03;;;1.88;60.01
77043;BME280;65975;53.936;27.540;2023-02-15T07:53:25;100603.91;;;2.10;58.41
77043;BME280;65975;53.936;27.540;2023-02-15T07:55:50;100625.50;;;1.81;59.81
77043;BME280;65975;53.936;27.540;2023-02-15T07:58:17;100601.44;;;2.13;58.86
77043;BME280;65975;53.936;27.540;2023-02-15T08:00:44;100617.38;;;1.98;59.14
77043;BME280;65975;53.936;27.540;2023-02-15T08:03:23;100601.63;;;1.89;59.08
77043;BME280;65975;53.936;27.540;2023-02-15T08:05:55;100596.31;;;1.53;60.60
77043;BME280;65975;53.936;27.540;2023-02-15T08:08:21;100590.44;;;1.59;61.02
77043;BME280;65975;53.936;27.540;2023-02-15T08:13:45;100565.13;;;0.89;61.33
77043;BME280;65975;53.936;27.540;2023-02-15T08:16:24;100574.94;;;1.01;61.87
77043;BME280;65975;53.936;27.540;2023-02-15T08:18:51;100597.47;;;1.35;61.82
77043;BME280;65975;53.936;27.540;2023-02-15T08:21:18;100580.53;;;1.14;62.00
77043;BME280;65975;53.936;27.540;2023-02-15T08:23:43;100560.72;;;1.13;62.16
77043;BME280;65975;53.936;27.540;2023-02-15T08:26:09;100575.19;;;1.67;61.27
77043;BME280;65975;53.936;27.540;2023-02-15T08:28:34;100600.25;;;1.41;61.86
77043;BME280;65975;53.936;27.540;2023-02-15T08:31:08;100592.06;;;1.55;61.31
77043;BME280;65975;53.936;27.540;2023-02-15T08:33:34;100593.53;;;1.77;61.31
77043;BME280;65975;53.936;27.540;2023-02-15T08:36:11;100583.31;;;1.80;60.26
77043;BME280;65975;53.936;27.540;2023-02-15T08:38:37;100596.59;;;2.25;58.85
77043;BME280;65975;53.936;27.540;2023-02-15T08:43:41;100595.06;;;2.02;59.32
77043;BME280;65975;53.936;27.540;2023-02-15T08:46:09;100595.50;;;1.86;60.02
77043;BME280;65975;53.936;27.540;2023-02-15T08:48:35;100598.13;;;2.19;59.45
77043;BME280;65975;53.936;27.540;2023-02-15T08:51:09;100544.81;;;1.89;58.46
77043;BME280;65975;53.936;27.540;2023-02-15T08:53:39;100590.22;;;2.14;58.63
77043;BME280;65975;53.936;27.540;2023-02-15T08:56:05;100588.16;;;2.34;57.51
77043;BME280;65975;53.936;27.540;2023-02-15T08:58:31;100583.94;;;2.36;57.74
77043;BME280;65975;53.936;27.540;2023-02-15T09:00:57;100576.44;;;2.12;58.34
77043;BME280;65975;53.936;27.540;2023-02-15T09:03:23;100582.72;;;2.23;57.59
77043;BME280;65975;53.936;27.540;2023-02-15T09:05:49;100574.19;;;2.26;58.20
77043;BME280;65975;53.936;27.540;2023-02-15T09:08:15;100538.28;;;1.71;58.58
77043;BME280;65975;53.936;27.540;2023-02-15T09:10:40;100524.25;;;1.92;58.21
77043;BME280;65975;53.936;27.540;2023-02-15T09:13:06;100583.72;;;1.95;58.91
77043;BME280;65975;53.936;27.540;2023-02-15T09:15:33;100572.81;;;2.40;58.35
77043;BME280;65975;53.936;27.540;2023-02-15T09:17:58;100531.69;;;2.15;58.08
77043;BME280;65975;53.936;27.540;2023-02-15T09:20:27;100583.72;;;2.28;58.28
77043;BME280;65975;53.936;27.540;2023-02-15T09:22:53;100576.59;;;2.53;57.62
77043;BME280;65975;53.936;27.540;2023-02-15T09:25:20;100508.72;;;1.59;58.32
77043;BME280;65975;53.936;27.540;2023-02-15T09:27:45;100562.16;;;2.28;57.41
77043;BME280;65975;53.936;27.540;2023-02-15T09:30:11;100570.97;;;2.69;57.54
77043;BME280;65975;53.936;27.540;2023-02-15T09:32:37;100553.31;;;2.89;56.39
77043;BME280;65975;53.936;27.540;2023-02-15T09:35:03;100587.94;;;2.58;56.63
77043;BME280;65975;53.936;27.540;2023-02-15T09:37:30;100578.03;;;2.07;57.93
77043;BME280;65975;53.936;27.540;2023-02-15T09:39:57;100562.41;;;2.37;57.01
77043;BME280;65975;53.936;27.540;2023-02-15T09:56:09;100564.88;;;3.03;55.52
77043;BME280;65975;53.936;27.540;2023-02-15T10:07:04;100566.53;;;3.01;55.55
77043;BME280;65975;53.936;27.540;2023-02-15T10:09:55;100567.63;;;2.74;55.19
77043;BME280;65975;53.936;27.540;2023-02-15T10:12:32;100552.19;;;3.15;54.77
77043;BME280;65975;53.936;27.540;2023-02-15T10:33:40;100492.44;;;3.46;52.58
77043;BME280;65975;53.936;27.540;2023-02-15T10:41:54;100530.00;;;3.68;52.72
77043;BME280;65975;53.936;27.540;2023-02-15T10:44:44;100515.94;;;3.57;52.87
77043;BME280;65975;53.936;27.540;2023-02-15T10:55:33;100533.84;;;3.88;52.84
77043;BME280;65975;53.936;27.540;2023-02-15T11:00:50;100499.06;;;3.77;51.68
77043;BME280;65975;53.936;27.540;2023-02-15T11:03:29;100518.53;;;4.02;50.64
77043;BME280;65975;53.936;27.540;2023-02-15T11:06:04;100536.19;;;4.23;50.61
77043;BME280;65975;53.936;27.540;2023-02-15T11:08:34;100533.47;;;3.70;51.77
77043;BME280;65975;53.936;27.540;2023-02-15T11:11:06;100530.09;;;3.73;52.17
77043;BME280;65975;53.936;27.540;2023-02-15T11:13:43;100522.22;;;3.68;51.83
77043;BME280;65975;53.936;27.540;2023-02-15T11:16:16;100501.16;;;3.96;51.24
77043;BME280;65975;53.936;27.540;2023-02-15T11:18:53;100455.28;;;3.44;52.30
77043;BME280;65975;53.936;27.540;2023-02-15T11:21:28;100523.72;;;4.02;51.27
77043;BME280;65975;53.936;27.540;2023-02-15T11:23:59;100518.50;;;3.54;51.93
77043;BME280;65975;53.936;27.540;2023-02-15T11:26:40;100521.25;;;4.10;50.89
77043;BME280;65975;53.936;27.540;2023-02-15T11:29:25;100520.09;;;3.47;52.21
77043;BME280;65975;53.936;27.540;2023-02-15T11:31:56;100512.91;;;3.34;51.62
77043;BME280;65975;53.936;27.540;2023-02-15T11:36:50;100518.81;;;3.69;52.68
77043;BME280;65975;53.936;27.540;2023-02-15T11:39:18;100503.53;;;3.39;51.87
77043;BME280;65975;53.936;27.540;2023-02-15T11:41:49;100514.69;;;3.80;51.51
77043;BME280;65975;53.936;27.540;2023-02-15T11:46:56;100511.00;;;3.68;51.60
77043;BME280;65975;53.936;27.540;2023-02-15T11:49:34;100449.31;;;3.95;50.46
77043;BME280;65975;53.936;27.540;2023-02-15T11:52:03;100454.66;;;3.57;50.28
77043;BME280;65975;53.936;27.540;2023-02-15T11:54:32;100505.34;;;3.88;50.23
77043;BME280;65975;53.936;27.540;2023-02-15T11:57:37;100497.47;;;3.82;50.46
77043;BME280;65975;53.936;27.540;2023-02-15T12:00:26;100499.44;;;4.48;49.12
77043;BME280;65975;53.936;27.540;2023-02-15T12:02:57;100476.09;;;3.95;49.42
77043;BME280;65975;53.936;27.540;2023-02-15T12:05:24;100499.00;;;3.73;50.22
77043;BME280;65975;53.936;27.540;2023-02-15T12:07:54;100497.75;;;4.50;49.45
77043;BME280;65975;53.936;27.540;2023-02-15T12:10:25;100501.88;;;4.37;49.06
77043;BME280;65975;53.936;27.540;2023-02-15T12:13:10;100497.28;;;4.21;48.57
77043;BME280;65975;53.936;27.540;2023-02-15T12:15:37;100432.34;;;4.14;48.56
77043;BME280;65975;53.936;27.540;2023-02-15T12:18:03;100364.97;;;3.61;48.57
77043;BME280;65975;53.936;27.540;2023-02-15T12:20:32;100420.44;;;3.74;49.11
77043;BME280;65975;53.936;27.540;2023-02-15T12:23:05;100484.16;;;4.66;47.56
77043;BME280;65975;53.936;27.540;2023-02-15T12:25:56;100481.28;;;4.47;47.87
77043;BME280;65975;53.936;27.540;2023-02-15T12:30:52;100483.78;;;4.40;49.10
77043;BME280;65975;53.936;27.540;2023-02-15T12:33:31;100478.88;;;4.60;48.02
77043;BME280;65975;53.936;27.540;2023-02-15T12:36:22;100483.81;;;4.43;47.89
77043;BME280;65975;53.936;27.540;2023-02-15T12:39:25;100485.34;;;4.31;49.18
77043;BME280;65975;53.936;27.540;2023-02-15T12:44:25;100480.22;;;4.34;48.91
77043;BME280;65975;53.936;27.540;2023-02-15T12:47:02;100481.25;;;4.45;48.47
77043;BME280;65975;53.936;27.540;2023-02-15T12:49:33;100476.91;;;4.44;48.82
77043;BME280;65975;53.936;27.540;2023-02-15T12:52:04;100465.59;;;4.39;48.75
77043;BME280;65975;53.936;27.540;2023-02-15T12:54:34;100471.13;;;4.09;48.98
77043;BME280;65975;53.936;27.540;2023-02-15T13:00:03;100464.88;;;4.49;48.61
77043;BME280;65975;53.936;27.540;2023-02-15T13:02:41;100466.75;;;4.58;48.38
77043;BME280;65975;53.936;27.540;2023-02-15T13:08:02;100455.09;;;4.31;48.97
77043;BME280;65975;53.936;27.540;2023-02-15T13:10:36;100328.16;;;3.28;49.06
77043;BME280;65975;53.936;27.540;2023-02-15T13:13:09;100451.47;;;4.22;48.84
77043;BME280;65975;53.936;27.540;2023-02-15T13:15:37;100467.38;;;4.43;48.53
77043;BME280;65975;53.936;27.540;2023-02-15T13:18:05;100450.19;;;3.97;49.75
77043;BME280;65975;53.936;27.540;2023-02-15T13:20:36;100417.59;;;4.10;48.91
77043;BME280;65975;53.936;27.540;2023-02-15T13:23:08;100450.06;;;4.40;48.65
77043;BME280;65975;53.936;27.540;2023-02-15T13:25:44;100471.47;;;4.29;49.39
77043;BME280;65975;53.936;27.540;2023-02-15T13:28:16;100457.03;;;4.45;49.32
77043;BME280;65975;53.936;27.540;2023-02-15T13:30:46;100406.03;;;4.45;48.71
77043;BME280;65975;53.936;27.540;2023-02-15T13:33:27;100423.63;;;4.10;49.36
77043;BME280;65975;53.936;27.540;2023-02-15T13:39:11;100452.66;;;4.40;49.79
77043;BME280;65975;53.936;27.540;2023-02-15T13:47:21;100457.81;;;4.39;49.41
77043;BME280;65975;53.936;27.540;2023-02-15T13:52:46;100458.88;;;4.52;49.03
77043;BME280;65975;53.936;27.540;2023-02-15T13:58:06;100464.72;;;4.38;50.51
77043;BME280;65975;53.936;27.540;2023-02-15T14:00:50;100359.91;;;4.23;49.34
77043;BME280;65975;53.936;27.540;2023-02-15T14:05:57;100462.34;;;4.52;49.55
77043;BME280;65975;53.936;27.540;2023-02-15T14:08:56;100462.72;;;4.22;50.62
77043;BME280;65975;53.936;27.540;2023-02-15T14:20:02;100454.22;;;4.31;51.39
77043;BME280;65975;53.936;27.540;2023-02-15T14:22:37;100462.00;;;4.31;50.46
77043;BME280;65975;53.936;27.540;2023-02-15T14:25:28;100341.19;;;3.34;52.16
77043;BME280;65975;53.936;27.540;2023-02-15T14:28:21;100370.16;;;3.61;51.52
77043;BME280;65975;53.936;27.540;2023-02-15T14:30:53;100448.88;;;3.71;52.49
77043;BME280;65975;53.936;27.540;2023-02-15T14:33:39;100462.09;;;3.86;52.99
77043;BME280;65975;53.936;27.540;2023-02-15T14:36:08;100431.03;;;3.86;52.75
77043;BME280;65975;53.936;27.540;2023-02-15T14:41:42;100408.28;;;3.70;53.33
77043;BME280;65975;53.936;27.540;2023-02-15T14:56:41;100311.75;;;3.27;53.59
77043;BME280;65975;53.936;27.540;2023-02-15T14:59:15;100413.41;;;3.67;53.58
77043;BME280;65975;53.936;27.540;2023-02-15T15:01:47;100307.34;;;2.76;53.69
77043;BME280;65975;53.936;27.540;2023-02-15T15:04:53;100441.09;;;3.71;53.94
77043;BME280;65975;53.936;27.540;2023-02-15T15:07:35;100438.63;;;3.77;53.94
77043;BME280;65975;53.936;27.540;2023-02-15T15:12:49;100435.34;;;3.87;54.17
77043;BME280;65975;53.936;27.540;2023-02-15T15:17:54;100435.81;;;3.65;54.90
77043;BME280;65975;53.936;27.540;2023-02-15T15:28:08;100421.31;;;3.74;54.61
77043;BME280;65975;53.936;27.540;2023-02-15T15:33:46;100434.00;;;3.59;55.58
77043;BME280;65975;53.936;27.540;2023-02-15T15:38:53;100446.59;;;3.41;56.62
77043;BME280;65975;53.936;27.540;2023-02-15T15:47:02;100442.47;;;3.07;58.38
77043;BME280;65975;53.936;27.540;2023-02-15T15:49:38;100379.41;;;2.60;58.02
77043;BME280;65975;53.936;27.540;2023-02-15T15:52:14;100436.50;;;3.09;58.22
77043;BME280;65975;53.936;27.540;2023-02-15T15:54:41;100431.97;;;2.99;58.88
77043;BME280;65975;53.936;27.540;2023-02-15T15:57:28;100438.88;;;3.00;59.32
77043;BME280;65975;53.936;27.540;2023-02-15T15:59:56;100431.44;;;3.15;58.91
77043;BME280;65975;53.936;27.540;2023-02-15T16:02:24;100428.28;;;3.30;58.38
77043;BME280;65975;53.936;27.540;2023-02-15T16:04:50;100395.81;;;2.62;59.75
77043;BME280;65975;53.936;27.540;2023-02-15T16:12:31;100431.75;;;2.89;60.16
77043;BME280;65975;53.936;27.540;2023-02-15T16:15:02;100430.34;;;2.64;60.59
77043;BME280;65975;53.936;27.540;2023-02-15T16:17:31;100452.53;;;2.54;61.30
77043;BME280;65975;53.936;27.540;2023-02-15T16:20:06;100425.22;;;2.67;61.64
77043;BME280;65975;53.936;27.540;2023-02-15T16:22:33;100375.53;;;2.39;61.75